This is the latest recevied weather packets stored in our database for station/object VE3GIF. If no packets are shown the sender has not sent any weather packets the latest 10 day(s).
| Time | Temp. | Humidity | Pressure | Rain* | Wind** | Luminosity | Snow |
|---|---|---|---|---|---|---|---|
| 1778018828 | 10.56° C | 76% | 1006.6 hPa | 0 mm | - | - | - |
| 1778018527 | 10.56° C | 77% | 1006.5 hPa | 0 mm | - | - | - |
| 1778018227 | 10.56° C | 79% | 1006.4 hPa | 0 mm | - | - | - |
| 1778017927 | 10.56° C | 80% | 1006.4 hPa | 0 mm | - | - | - |
| 1778017626 | 10.56° C | 81% | 1006.3 hPa | 0 mm | - | - | - |
| 1778017326 | 10.56° C | 81% | 1006.4 hPa | 0 mm | - | - | - |
| 1778016726 | 10.56° C | 82% | 1006.4 hPa | 0 mm | - | - | - |
| 1778016425 | 10.56° C | 82% | 1006.4 hPa | 0 mm | - | - | - |
| 1778016125 | 10° C | 81% | 1006.2 hPa | 0 mm | - | - | - |
| 1778015825 | 10° C | 81% | 1006.3 hPa | 0 mm | - | - | - |
| 1778015525 | 10° C | 81% | 1006.2 hPa | 0 mm | - | - | - |
| 1778015224 | 10° C | 81% | 1006.3 hPa | 0 mm | - | - | - |
| 1778014924 | 10° C | 81% | 1006.3 hPa | 0 mm | - | - | - |
| 1778014323 | 10° C | 80% | 1006.2 hPa | 0 mm | - | - | - |
| 1778014023 | 10.56° C | 79% | 1006.3 hPa | 0 mm | - | - | - |
| 1778013723 | 10.56° C | 79% | 1006.3 hPa | 0 mm | - | - | - |
| 1778013122 | 10.56° C | 77% | 1005.9 hPa | 0 mm | - | - | - |
| 1778012822 | 10.56° C | 76% | 1005.9 hPa | 0 mm | - | - | - |
| 1778012522 | 10.56° C | 75% | 1005.8 hPa | 0 mm | - | - | - |
| 1778012221 | 10.56° C | 75% | 1005.8 hPa | 0 mm | - | - | - |
| 1778011921 | 11.11° C | 74% | 1006 hPa | 0 mm | - | - | - |
| 1778011621 | 11.11° C | 73% | 1005.9 hPa | 0 mm | - | - | - |
| 1778011321 | 11.67° C | 70% | 1006.1 hPa | 0 mm | - | - | - |
| 1778011020 | 12.22° C | 67% | 1005.9 hPa | 0 mm | - | - | - |
| 1778010720 | 12.78° C | 63% | 1005.7 hPa | 0 mm | - | - | - |
* Rain latest hour (hover to see other rain measurements)
** Current wind speed in m/s (hover to see current wind gust speed)